createdAt,value
2022-08-03T00:00:36.185Z,1.33
2022-08-03T00:03:04.773Z,1.20
2022-08-03T00:05:33.402Z,1.30
2022-08-03T00:08:02.215Z,1.50
2022-08-03T00:10:31.829Z,1.67
2022-08-03T00:13:00.508Z,1.20
2022-08-03T00:15:28.594Z,1.30
2022-08-03T00:17:57.111Z,1.40
2022-08-03T00:20:25.672Z,1.30
2022-08-03T00:22:54.250Z,1.20
2022-08-03T00:25:22.343Z,1.30
2022-08-03T00:27:52.214Z,1.35
2022-08-03T00:30:20.884Z,1.30
2022-08-03T00:32:49.940Z,1.40
2022-08-03T00:35:29.339Z,1.48
2022-08-03T00:38:05.566Z,1.30
2022-08-03T00:40:34.796Z,1.38
2022-08-03T00:43:06.160Z,1.92
2022-08-03T00:45:38.025Z,1.40
2022-08-03T00:48:24.936Z,1.50
2022-08-03T00:50:58.335Z,1.30
2022-08-03T00:53:26.955Z,1.45
2022-08-03T00:55:55.103Z,1.38
2022-08-03T00:58:25.159Z,1.60
2022-08-03T01:00:53.729Z,1.58
2022-08-03T01:03:22.306Z,1.42
2022-08-03T01:05:57.647Z,1.52
2022-08-03T01:08:34.866Z,1.27
2022-08-03T01:11:11.721Z,1.75
2022-08-03T01:14:01.582Z,1.58
2022-08-03T01:16:40.559Z,1.50
2022-08-03T01:19:26.007Z,1.40
2022-08-03T01:22:06.141Z,1.77
2022-08-03T01:24:43.918Z,1.40
2022-08-03T01:27:18.968Z,1.42
2022-08-03T01:30:05.035Z,1.40
2022-08-03T01:32:58.489Z,1.40
2022-08-03T01:35:35.484Z,1.17
2022-08-03T01:38:11.658Z,1.40
2022-08-03T01:40:41.692Z,1.45
2022-08-03T01:43:12.442Z,1.30
2022-08-03T01:45:45.853Z,1.35
2022-08-03T01:48:17.375Z,1.50
2022-08-03T01:50:47.673Z,1.45
2022-08-03T01:53:17.196Z,1.50
2022-08-03T01:55:47.257Z,1.50
2022-08-03T01:58:18.329Z,1.58
2022-08-03T02:00:50.543Z,2.00
2022-08-03T02:03:20.392Z,1.60
2022-08-03T02:05:49.931Z,1.70
2022-08-03T02:08:25.257Z,1.40
2022-08-03T02:10:56.535Z,1.60
2022-08-03T02:13:26.214Z,1.40
2022-08-03T02:15:57.247Z,1.50
2022-08-03T02:18:25.717Z,1.70
2022-08-03T02:20:54.594Z,1.35
2022-08-03T02:23:22.736Z,1.63
2022-08-03T02:25:59.867Z,1.52
2022-08-03T02:28:34.150Z,1.50
2022-08-03T02:31:08.506Z,1.20
2022-08-03T02:33:42.450Z,1.50
2022-08-03T02:36:15.531Z,1.70
2022-08-03T02:38:47.478Z,1.67
2022-08-03T02:41:19.683Z,1.42
2022-08-03T02:44:05.708Z,1.60
2022-08-03T02:46:40.188Z,1.33
2022-08-03T02:49:41.137Z,1.70
2022-08-03T02:52:00.217Z,1.70
2022-08-03T02:54:29.747Z,1.60
2022-08-03T02:57:00.166Z,1.88
2022-08-03T02:59:31.785Z,1.40
2022-08-03T03:02:02.944Z,1.70
2022-08-03T03:04:33.200Z,1.60
2022-08-03T03:07:04.415Z,1.50
2022-08-03T03:09:42.007Z,1.40
2022-08-03T03:12:13.784Z,1.70
2022-08-03T03:14:42.604Z,1.60
2022-08-03T03:17:13.664Z,1.70
2022-08-03T03:19:42.556Z,1.73
2022-08-03T03:22:11.804Z,1.70
2022-08-03T03:24:42.820Z,1.95
2022-08-03T03:27:11.743Z,1.70
2022-08-03T03:29:45.581Z,1.55
2022-08-03T03:32:15.797Z,1.70
2022-08-03T03:34:45.147Z,1.60
2022-08-03T03:37:14.360Z,1.80
2022-08-03T03:39:42.550Z,2.05
2022-08-03T03:42:10.749Z,1.70
2022-08-03T03:44:39.317Z,1.80
2022-08-03T03:47:07.542Z,1.95
2022-08-03T03:49:38.360Z,2.20
2022-08-03T03:52:07.763Z,1.88
2022-08-03T03:54:42.561Z,1.83
2022-08-03T03:57:13.806Z,1.90
2022-08-03T03:59:43.343Z,1.77
2022-08-03T04:02:13.503Z,1.90
2022-08-03T04:05:00.826Z,1.95
2022-08-03T04:07:50.944Z,1.80
2022-08-03T04:10:40.188Z,1.90
2022-08-03T04:13:11.388Z,1.95
2022-08-03T04:15:41.462Z,2.03
2022-08-03T04:18:14.023Z,1.63
2022-08-03T04:20:48.861Z,1.73
2022-08-03T04:23:19.734Z,1.90
2022-08-03T04:25:50.288Z,1.73
2022-08-03T04:28:30.836Z,2.20
2022-08-03T04:31:01.086Z,1.85
2022-08-03T04:33:32.582Z,2.03
2022-08-03T04:36:05.442Z,1.90
2022-08-03T04:38:38.409Z,1.63
2022-08-03T04:41:06.638Z,1.92
2022-08-03T04:43:36.112Z,1.85
2022-08-03T04:46:05.884Z,2.15
2022-08-03T04:48:35.318Z,2.13
2022-08-03T04:51:05.416Z,2.08
2022-08-03T04:53:34.045Z,2.10
2022-08-03T04:56:06.551Z,1.98
2022-08-03T04:58:35.119Z,2.10
2022-08-03T05:01:03.252Z,2.25
2022-08-03T05:03:32.654Z,2.05
2022-08-03T05:06:09.491Z,2.08
2022-08-03T05:08:46.420Z,2.22
2022-08-03T05:11:16.196Z,2.22
2022-08-03T05:13:44.508Z,2.53
2022-08-03T05:16:14.244Z,2.42
2022-08-03T05:18:42.908Z,2.53
2022-08-03T05:21:12.933Z,2.65
2022-08-03T05:23:42.431Z,2.72
2022-08-03T05:26:12.255Z,2.45
2022-08-03T05:28:40.652Z,2.90
2022-08-03T05:31:20.033Z,2.55
2022-08-03T05:33:49.100Z,2.65
2022-08-03T05:36:17.440Z,2.80
2022-08-03T05:38:47.449Z,2.63
2022-08-03T05:41:21.924Z,3.17
2022-08-03T05:43:53.241Z,2.50
2022-08-03T05:46:21.734Z,2.25
2022-08-03T05:48:50.304Z,2.40
2022-08-03T05:51:18.590Z,2.60
2022-08-03T05:53:48.607Z,2.47
2022-08-03T05:56:17.106Z,2.85
2022-08-03T05:58:47.244Z,2.53
2022-08-03T06:01:16.014Z,2.42
2022-08-03T06:03:44.238Z,2.70
2022-08-03T06:06:13.118Z,2.95
2022-08-03T06:08:41.790Z,2.47
2022-08-03T06:11:11.436Z,2.80
2022-08-03T06:13:40.199Z,2.55
2022-08-03T06:16:08.917Z,3.10
2022-08-03T06:18:37.257Z,2.92
2022-08-03T06:21:15.691Z,2.63
2022-08-03T06:23:53.141Z,2.80
2022-08-03T06:26:26.504Z,3.30
2022-08-03T06:28:55.510Z,2.58
2022-08-03T06:31:33.210Z,2.75
2022-08-03T06:34:33.790Z,2.80
2022-08-03T06:36:52.625Z,2.75
2022-08-03T06:39:23.628Z,2.97
2022-08-03T06:41:54.329Z,2.83
2022-08-03T06:44:22.467Z,2.92
2022-08-03T06:46:51.277Z,2.83
2022-08-03T06:49:20.079Z,3.00
2022-08-03T06:52:05.871Z,2.38
2022-08-03T06:54:37.215Z,2.20
2022-08-03T06:57:08.433Z,2.53
2022-08-03T07:00:09.728Z,2.47
2022-08-03T07:02:24.735Z,2.67
2022-08-03T07:04:56.837Z,2.33
2022-08-03T07:07:25.362Z,2.20
2022-08-03T07:09:56.719Z,2.65
2022-08-03T07:12:27.881Z,2.90
2022-08-03T07:15:00.837Z,2.80
2022-08-03T07:17:30.203Z,2.63
2022-08-03T07:19:58.848Z,2.38
2022-08-03T07:22:27.050Z,2.20
2022-08-03T07:24:55.612Z,2.35
2022-08-03T07:27:23.850Z,2.40
2022-08-03T07:29:53.342Z,2.30
2022-08-03T07:32:21.488Z,2.40
2022-08-03T07:34:49.760Z,2.05
2022-08-03T07:37:18.534Z,2.40
2022-08-03T07:39:47.088Z,2.20
2022-08-03T07:42:16.001Z,2.28
2022-08-03T07:44:44.192Z,2.30
2022-08-03T07:47:22.305Z,2.67
2022-08-03T07:49:51.443Z,2.13
2022-08-03T07:52:37.673Z,2.50
2022-08-03T07:55:06.653Z,1.90
2022-08-03T07:57:35.870Z,2.03
2022-08-03T08:00:10.104Z,2.22
2022-08-03T08:02:40.003Z,1.90
2022-08-03T08:05:09.504Z,1.90
2022-08-03T08:07:37.720Z,2.25
2022-08-03T08:10:11.464Z,2.20
2022-08-03T08:12:40.159Z,2.28
2022-08-03T08:15:10.127Z,2.70
2022-08-03T08:17:47.968Z,2.30
2022-08-03T08:20:25.227Z,2.17
2022-08-03T08:23:01.367Z,2.10
2022-08-03T08:25:31.349Z,2.40
2022-08-03T08:28:31.262Z,1.90
2022-08-03T08:30:51.500Z,2.10
2022-08-03T08:33:23.213Z,2.20
2022-08-03T08:35:53.735Z,2.17
2022-08-03T08:38:22.479Z,1.80
2022-08-03T08:40:51.260Z,2.40
2022-08-03T08:43:19.789Z,1.90
2022-08-03T08:45:50.125Z,2.00
2022-08-03T08:48:24.598Z,2.20
2022-08-03T08:50:54.465Z,2.13
2022-08-03T08:53:27.159Z,1.90
2022-08-03T08:56:01.233Z,2.35
2022-08-03T08:58:32.547Z,1.88
2022-08-03T09:01:01.319Z,1.92
2022-08-03T09:03:31.372Z,2.05
2022-08-03T09:06:02.667Z,2.08
2022-08-03T09:08:32.320Z,1.80
2022-08-03T09:11:01.176Z,1.73
2022-08-03T09:13:30.601Z,1.77
2022-08-03T09:16:13.369Z,1.55
2022-08-03T09:18:43.804Z,1.50
2022-08-03T09:21:35.739Z,1.60
2022-08-03T09:24:07.048Z,1.90
2022-08-03T09:26:38.696Z,1.73
2022-08-03T09:29:14.034Z,2.00
2022-08-03T09:31:45.698Z,1.88
2022-08-03T09:34:17.410Z,1.65
2022-08-03T09:36:47.930Z,1.80
2022-08-03T09:39:17.654Z,1.77
2022-08-03T09:41:47.803Z,1.75
2022-08-03T09:44:25.157Z,1.73
2022-08-03T09:46:57.568Z,1.80
2022-08-03T09:49:27.088Z,1.80
2022-08-03T09:52:31.676Z,1.70
2022-08-03T09:54:44.560Z,1.90
2022-08-03T09:57:23.942Z,1.83
2022-08-03T10:00:03.152Z,1.63
2022-08-03T10:02:34.411Z,1.60
2022-08-03T10:05:04.596Z,2.08
2022-08-03T10:07:46.035Z,1.70
2022-08-03T10:10:31.328Z,1.75
2022-08-03T10:13:01.408Z,1.60
2022-08-03T10:16:24.079Z,1.70
2022-08-03T10:18:18.485Z,1.67
2022-08-03T10:20:53.712Z,1.80
2022-08-03T10:23:24.991Z,1.77
2022-08-03T10:26:00.648Z,1.52
2022-08-03T10:28:37.066Z,1.50
2022-08-03T10:31:09.741Z,1.70
2022-08-03T10:33:49.737Z,1.65
2022-08-03T10:36:25.265Z,1.88
2022-08-03T10:38:54.373Z,1.48
2022-08-03T10:41:24.372Z,1.77
2022-08-03T10:43:58.298Z,1.65
2022-08-03T10:46:28.333Z,1.65
2022-08-03T10:48:58.070Z,1.70
2022-08-03T10:51:32.126Z,1.40
2022-08-03T10:54:01.880Z,1.75
2022-08-03T10:56:58.525Z,2.08
2022-08-03T10:59:59.501Z,3.00
2022-08-03T11:03:17.147Z,3.05
2022-08-03T11:05:47.289Z,2.17
2022-08-03T11:08:37.985Z,2.38
2022-08-03T11:11:30.045Z,2.38
2022-08-03T11:14:00.504Z,1.73
2022-08-03T11:16:29.573Z,2.13
2022-08-03T11:18:59.799Z,1.65
2022-08-03T11:21:59.353Z,1.40
2022-08-03T11:25:00.432Z,1.65
2022-08-03T11:27:30.696Z,1.63
2022-08-03T11:30:01.777Z,1.63
2022-08-03T11:33:06.640Z,1.60
2022-08-03T11:35:36.494Z,1.67
2022-08-03T11:38:07.229Z,1.58
2022-08-03T11:40:40.616Z,1.50
2022-08-03T11:43:10.400Z,1.60
2022-08-03T11:45:39.455Z,1.50
2022-08-03T11:48:18.483Z,1.50
2022-08-03T11:50:46.640Z,1.70
2022-08-03T11:53:19.960Z,1.42
2022-08-03T11:55:49.981Z,1.35
2022-08-03T11:59:10.698Z,1.30
2022-08-03T12:01:12.102Z,1.30
2022-08-03T12:03:40.320Z,1.10
2022-08-03T12:06:12.138Z,1.25
2022-08-03T12:08:40.958Z,1.20
2022-08-03T12:11:12.605Z,1.15
2022-08-03T12:14:35.820Z,1.10
2022-08-03T12:16:30.783Z,0.90
2022-08-03T12:19:00.884Z,1.20
2022-08-03T12:21:30.105Z,1.10
2022-08-03T12:24:00.382Z,0.98
2022-08-03T12:26:31.265Z,1.20
2022-08-03T12:28:59.553Z,0.95
2022-08-03T12:31:28.070Z,0.93
2022-08-03T12:33:59.049Z,0.80
2022-08-03T12:36:30.159Z,1.38
2022-08-03T12:39:00.508Z,0.90
2022-08-03T12:41:33.973Z,2.15
2022-08-03T12:44:03.872Z,2.25
2022-08-03T12:46:34.217Z,2.80
2022-08-03T12:49:08.531Z,2.33
2022-08-03T12:51:38.061Z,2.40
2022-08-03T12:54:07.419Z,1.63
2022-08-03T12:56:37.532Z,1.40
2022-08-03T12:59:34.665Z,1.40
2022-08-03T13:02:09.543Z,1.35
2022-08-03T13:04:38.800Z,1.15
2022-08-03T13:07:18.003Z,1.13
2022-08-03T13:09:47.638Z,0.95
2022-08-03T13:12:18.515Z,0.80
2022-08-03T13:14:48.239Z,1.17
2022-08-03T13:17:18.271Z,1.00
2022-08-03T13:19:48.285Z,1.20
2022-08-03T13:22:18.222Z,0.90
2022-08-03T13:24:48.570Z,0.70
2022-08-03T13:28:01.129Z,1.00
2022-08-03T13:30:08.740Z,0.85
2022-08-03T13:32:37.227Z,1.10
2022-08-03T13:35:07.141Z,1.17
2022-08-03T13:37:35.866Z,1.30
2022-08-03T13:40:06.854Z,0.65
2022-08-03T13:42:38.984Z,0.75
2022-08-03T13:45:09.265Z,1.08
2022-08-03T13:47:38.424Z,0.80
2022-08-03T13:50:07.025Z,0.70
2022-08-03T13:52:36.761Z,0.90
2022-08-03T13:55:07.191Z,1.00
2022-08-03T13:58:02.919Z,0.77
2022-08-03T14:00:28.931Z,1.08
2022-08-03T14:03:13.675Z,0.70
2022-08-03T14:05:44.090Z,1.05
2022-08-03T14:08:13.033Z,1.02
2022-08-03T14:10:46.146Z,1.05
2022-08-03T14:13:17.599Z,1.00
2022-08-03T14:15:50.029Z,1.08
2022-08-03T14:18:28.855Z,0.55
2022-08-03T14:21:05.944Z,0.98
2022-08-03T14:23:35.578Z,1.10
2022-08-03T14:26:04.281Z,0.85
2022-08-03T14:28:34.432Z,0.60
2022-08-03T14:31:02.985Z,1.00
2022-08-03T14:33:31.681Z,1.23
2022-08-03T14:35:59.944Z,0.80
2022-08-03T14:38:28.112Z,1.00
2022-08-03T14:40:56.754Z,0.82
2022-08-03T14:43:25.120Z,0.85
2022-08-03T14:45:55.553Z,1.00
2022-08-03T14:50:33.340Z,1.00
2022-08-03T14:51:13.785Z,0.88
2022-08-03T14:53:41.922Z,0.85
2022-08-03T14:56:10.954Z,1.40
2022-08-03T14:58:40.297Z,1.80
2022-08-03T15:02:04.751Z,1.52
2022-08-03T15:03:58.609Z,1.65
2022-08-03T15:06:26.772Z,1.20
2022-08-03T15:09:22.471Z,1.30
2022-08-03T15:11:44.144Z,1.15
2022-08-03T15:14:13.572Z,1.05
2022-08-03T15:16:44.322Z,0.88
2022-08-03T15:20:03.796Z,1.27
2022-08-03T15:22:01.228Z,1.17
2022-08-03T15:24:30.667Z,1.50
2022-08-03T15:26:58.901Z,1.33
2022-08-03T15:30:05.711Z,1.10
2022-08-03T15:32:17.829Z,1.10
2022-08-03T15:34:50.316Z,1.20
2022-08-03T15:37:20.436Z,1.10
2022-08-03T15:39:59.967Z,0.93
2022-08-03T15:42:30.558Z,1.08
2022-08-03T15:44:58.754Z,1.00
2022-08-03T15:47:28.863Z,1.10
2022-08-03T15:49:57.125Z,1.00
2022-08-03T15:52:25.340Z,0.77
2022-08-03T15:54:53.949Z,0.90
2022-08-03T15:57:22.490Z,0.80
2022-08-03T15:59:51.327Z,0.70
2022-08-03T16:02:19.604Z,0.75
2022-08-03T16:04:50.213Z,0.80
2022-08-03T16:07:38.806Z,0.80
2022-08-03T16:10:07.945Z,0.90
2022-08-03T16:12:36.141Z,1.00
2022-08-03T16:15:05.531Z,0.80
2022-08-03T16:17:34.328Z,1.00
2022-08-03T16:20:12.630Z,1.05
2022-08-03T16:22:53.984Z,0.80
2022-08-03T16:25:22.140Z,0.77
2022-08-03T16:28:03.187Z,1.02
2022-08-03T16:30:37.139Z,1.02
2022-08-03T16:33:05.424Z,1.10
2022-08-03T16:35:35.536Z,0.73
2022-08-03T16:38:09.213Z,1.15
2022-08-03T16:40:39.175Z,1.00
2022-08-03T16:43:18.108Z,0.85
2022-08-03T16:45:48.003Z,0.95
2022-08-03T16:48:20.373Z,1.10
2022-08-03T16:50:49.944Z,0.70
2022-08-03T16:53:32.964Z,0.98
2022-08-03T16:56:10.540Z,0.85
2022-08-03T16:58:42.283Z,1.00
2022-08-03T17:01:21.457Z,0.90
2022-08-03T17:04:01.317Z,0.90
2022-08-03T17:06:35.854Z,0.70
2022-08-03T17:09:08.930Z,1.08
2022-08-03T17:11:44.156Z,1.20
2022-08-03T17:14:17.502Z,1.50
2022-08-03T17:16:53.087Z,1.10
2022-08-03T17:19:24.576Z,1.13
2022-08-03T17:22:01.132Z,1.10
2022-08-03T17:24:34.220Z,1.20
2022-08-03T17:27:04.245Z,1.27
2022-08-03T17:29:45.095Z,1.25
2022-08-03T17:32:18.330Z,1.00
2022-08-03T17:34:50.262Z,1.38
2022-08-03T17:37:50.042Z,1.35
2022-08-03T17:40:17.359Z,1.20
2022-08-03T17:42:50.544Z,1.00
2022-08-03T17:45:20.377Z,1.20
2022-08-03T17:47:57.377Z,1.13
2022-08-03T17:50:35.479Z,0.98
2022-08-03T17:53:15.564Z,1.30
2022-08-03T17:56:38.600Z,1.00
2022-08-03T17:59:08.334Z,1.30
2022-08-03T18:02:11.602Z,1.45
2022-08-03T18:04:55.549Z,1.40
2022-08-03T18:07:47.897Z,1.23
2022-08-03T18:10:22.893Z,1.52
2022-08-03T18:12:55.005Z,2.85
2022-08-03T18:15:28.691Z,6.65
2022-08-03T18:18:02.061Z,2.22
2022-08-03T18:20:40.915Z,3.13
2022-08-03T18:23:36.843Z,3.30
2022-08-03T18:26:12.077Z,2.92
2022-08-03T18:28:41.146Z,2.92
2022-08-03T18:31:11.619Z,2.88
2022-08-03T18:34:20.035Z,3.28
2022-08-03T18:36:31.919Z,1.90
2022-08-03T18:39:04.069Z,2.65
2022-08-03T18:41:36.330Z,1.85
2022-08-03T18:44:08.866Z,1.90
2022-08-03T18:47:08.043Z,2.15
2022-08-03T18:49:58.288Z,1.98
2022-08-03T18:52:34.205Z,1.40
2022-08-03T18:55:20.814Z,1.33
2022-08-03T18:58:05.580Z,1.65
2022-08-03T19:00:42.720Z,1.25
2022-08-03T19:03:42.738Z,1.50
2022-08-03T19:09:09.437Z,1.17
2022-08-03T19:12:13.127Z,1.33
2022-08-03T19:14:36.455Z,1.60
2022-08-03T19:17:12.173Z,1.45
2022-08-03T19:19:46.737Z,1.05
2022-08-03T19:22:20.716Z,1.02
2022-08-03T19:24:50.600Z,1.48
2022-08-03T19:27:26.936Z,1.08
2022-08-03T19:30:02.918Z,1.10
2022-08-03T19:32:34.796Z,1.23
2022-08-03T19:35:13.197Z,1.10
2022-08-03T19:37:45.007Z,1.30
2022-08-03T19:40:14.058Z,1.20
2022-08-03T19:42:51.096Z,1.20
2022-08-03T19:46:04.690Z,1.33
2022-08-03T19:48:22.983Z,1.42
2022-08-03T19:50:55.009Z,1.23
2022-08-03T19:53:34.615Z,1.25
2022-08-03T19:56:06.718Z,1.40
2022-08-03T19:58:36.503Z,1.30
2022-08-03T20:01:19.367Z,1.20
2022-08-03T20:03:50.977Z,1.17
2022-08-03T20:06:22.955Z,1.20
2022-08-03T20:08:53.279Z,1.48
2022-08-03T20:11:28.619Z,1.40
2022-08-03T20:13:59.615Z,1.30
2022-08-03T20:16:29.229Z,1.10
2022-08-03T20:18:57.465Z,1.40
2022-08-03T20:21:30.677Z,1.40
2022-08-03T20:24:24.691Z,1.40
2022-08-03T20:26:54.644Z,1.33
2022-08-03T20:29:42.529Z,1.40
2022-08-03T20:32:12.639Z,1.40
2022-08-03T20:34:41.095Z,1.38
2022-08-03T20:37:09.627Z,1.45
2022-08-03T20:39:40.338Z,1.25
2022-08-03T20:42:21.430Z,1.25
2022-08-03T20:44:58.923Z,1.10
2022-08-03T20:47:50.334Z,1.30
2022-08-03T20:50:22.126Z,1.00
2022-08-03T20:52:51.092Z,1.10
2022-08-03T20:55:20.229Z,1.33
2022-08-03T20:58:08.766Z,1.10
2022-08-03T21:00:38.124Z,1.20
2022-08-03T21:03:09.027Z,1.25
2022-08-03T21:05:51.525Z,1.30
2022-08-03T21:08:27.553Z,1.00
2022-08-03T21:11:00.140Z,1.20
2022-08-03T21:13:10.126Z,1.25
2022-08-03T21:13:40.462Z,1.00
2022-08-03T21:16:14.671Z,1.50
2022-08-03T21:18:48.097Z,1.13
2022-08-03T21:21:19.415Z,0.93
2022-08-03T21:23:53.086Z,1.13
2022-08-03T21:26:22.727Z,1.10
2022-08-03T21:28:54.714Z,2.35
2022-08-03T21:31:26.558Z,1.83
2022-08-03T21:33:57.791Z,1.20
2022-08-03T21:36:28.050Z,1.05
2022-08-03T21:38:57.403Z,1.35
2022-08-03T21:41:27.167Z,1.20
2022-08-03T21:43:56.062Z,1.23
2022-08-03T21:46:25.000Z,1.25
2022-08-03T21:50:02.643Z,1.25
2022-08-03T21:51:50.553Z,1.20
2022-08-03T21:54:21.872Z,1.00
2022-08-03T21:56:52.314Z,1.30
2022-08-03T21:59:24.286Z,1.40
2022-08-03T22:01:55.142Z,1.10
2022-08-03T22:04:53.556Z,1.02
2022-08-03T22:07:18.028Z,1.13
2022-08-03T22:09:50.233Z,1.17
2022-08-03T22:12:22.667Z,1.25
2022-08-03T22:15:00.021Z,1.23
2022-08-03T22:17:54.849Z,1.13
2022-08-03T22:20:19.771Z,1.00
2022-08-03T22:22:53.578Z,0.98
2022-08-03T22:25:29.465Z,1.27
2022-08-03T22:27:59.679Z,1.30
2022-08-03T22:30:28.506Z,1.20
2022-08-03T22:32:57.740Z,1.20
2022-08-03T22:35:29.770Z,1.50
2022-08-03T22:38:00.224Z,1.17
2022-08-03T22:40:29.298Z,0.82
2022-08-03T22:43:01.015Z,1.30
2022-08-03T22:46:06.947Z,1.25
2022-08-03T22:48:19.329Z,1.20
2022-08-03T22:50:49.925Z,1.20
2022-08-03T22:53:19.237Z,1.30
2022-08-03T22:55:49.199Z,1.20
2022-08-03T22:58:17.362Z,1.20
2022-08-03T23:00:53.700Z,1.10
2022-08-03T23:03:59.667Z,1.05
2022-08-03T23:06:21.026Z,1.20
2022-08-03T23:08:51.932Z,1.20
2022-08-03T23:11:21.756Z,1.25
2022-08-03T23:13:55.229Z,1.48
2022-08-03T23:16:28.997Z,1.40
2022-08-03T23:18:59.553Z,1.20
2022-08-03T23:21:52.894Z,1.30
2022-08-03T23:24:26.139Z,1.10
2022-08-03T23:26:58.813Z,1.15
2022-08-03T23:29:30.327Z,1.02
2022-08-03T23:31:59.551Z,1.27
2022-08-03T23:34:47.256Z,1.10
2022-08-03T23:37:17.712Z,1.30
2022-08-03T23:39:47.905Z,1.40
2022-08-03T23:42:19.039Z,1.15
2022-08-03T23:44:48.609Z,1.23
2022-08-03T23:47:16.779Z,1.20
2022-08-03T23:49:45.684Z,1.45
2022-08-03T23:52:21.942Z,1.13
2022-08-03T23:55:04.623Z,1.30
2022-08-03T23:57:41.090Z,1.50
